Time;durP1;ratioP1;P1;durP2;ratioP2;P2;SDS_P1;SDS_P2;PMS_P1;PMS_P2;Temp;Humidity;BMP_temperature;BMP_pressure;BME280_temperature;BME280_humidity;BME280_pressure;Samples;Min_cycle;Max_cycle;Signal;HPM_P1;HPM_P2
2020/12/08 00:02:37;;;;;;;0.20;0.20;;;9.40;99.90;;;;;;10330327;28;20210;-72
2020/12/08 00:07:40;;;;;;;0.33;0.30;;;9.10;99.90;;;;;;10330662;28;20287;-74
2020/12/08 00:12:43;;;;;;;0.53;0.50;;;9.00;99.90;;;;;;10329701;28;20236;-73
2020/12/08 00:17:47;;;;;;;5.63;0.70;;;8.80;99.90;;;;;;10329842;28;20315;-74
2020/12/08 00:22:49;;;;;;;0.33;0.33;;;8.80;99.90;;;;;;10299446;28;20606;-74
2020/12/08 00:27:53;;;;;;;0.30;0.30;;;8.70;99.90;;;;;;10329820;28;20291;-73
2020/12/08 00:32:55;;;;;;;0.20;0.10;;;8.70;99.90;;;;;;10329199;28;20278;-74
2020/12/08 00:37:58;;;;;;;0.20;0.20;;;8.70;99.90;;;;;;10329087;28;20230;-74
2020/12/08 00:43:01;;;;;;;0.20;0.10;;;8.70;99.90;;;;;;10330436;28;20195;-73
2020/12/08 00:48:04;;;;;;;0.20;0.13;;;8.60;99.90;;;;;;10328759;28;20192;-74
2020/12/08 00:53:06;;;;;;;0.60;0.40;;;8.60;99.90;;;;;;10329005;28;20282;-74
2020/12/08 00:58:10;;;;;;;0.40;0.40;;;8.30;99.90;;;;;;10321473;28;20666;-73
2020/12/08 01:03:13;;;;;;;0.20;0.10;;;8.30;99.90;;;;;;10371053;22;20337;-76
2020/12/08 01:08:15;;;;;;;0.20;0.10;;;8.40;99.90;;;;;;10369031;28;20204;-79
2020/12/08 01:13:19;;;;;;;0.20;0.13;;;8.20;99.90;;;;;;10368941;28;20225;-78
2020/12/08 01:18:21;;;;;;;0.40;0.40;;;7.90;99.90;;;;;;10328084;28;20313;-77
2020/12/08 01:23:24;;;;;;;0.87;0.40;;;7.60;99.90;;;;;;10352206;28;20203;-78
2020/12/08 01:28:27;;;;;;;0.20;0.10;;;7.40;99.90;;;;;;10368492;28;20226;-75
2020/12/08 01:33:30;;;;;;;0.20;0.10;;;7.70;99.90;;;;;;10366450;28;20207;-74
2020/12/08 01:38:33;;;;;;;0.40;0.40;;;8.30;99.90;;;;;;10331800;28;20297;-74
2020/12/08 01:43:46;;;;;;;0.50;0.50;;;8.30;99.90;;;;;;10353385;28;20230;-74
2020/12/08 01:48:50;;;;;;;0.33;0.27;;;8.60;99.90;;;;;;10368523;28;20668;-80
2020/12/08 01:53:53;;;;;;;0.20;0.10;;;8.70;99.90;;;;;;10367612;28;20555;-77
2020/12/08 01:59:00;;;;;;;0.20;0.20;;;8.90;99.90;;;;;;10365118;28;20234;-75
2020/12/08 02:04:03;;;;;;;0.20;0.10;;;8.90;99.90;;;;;;10325424;28;20224;-77
2020/12/08 02:09:06;;;;;;;0.50;0.27;;;8.70;99.90;;;;;;10327326;28;20204;-74
2020/12/08 02:14:09;;;;;;;0.60;0.60;;;8.70;99.90;;;;;;10329273;28;20195;-76
2020/12/08 02:19:12;;;;;;;0.20;0.10;;;8.70;99.90;;;;;;10335152;28;20219;-76
2020/12/08 02:24:17;;;;;;;0.20;0.10;;;8.50;99.90;;;;;;10333739;28;20545;-74
2020/12/08 02:29:19;;;;;;;0.40;0.40;;;8.40;99.90;;;;;;10333439;28;20217;-74
2020/12/08 02:34:22;;;;;;;0.23;0.23;;;8.30;99.90;;;;;;10334990;28;20278;-78
2020/12/08 02:39:26;;;;;;;1.23;0.30;;;8.20;99.90;;;;;;10333839;28;20219;-76
2020/12/08 02:44:28;;;;;;;0.20;0.10;;;8.10;99.90;;;;;;10334327;28;20602;-75
2020/12/08 02:49:31;;;;;;;0.60;0.33;;;7.80;99.90;;;;;;10333530;28;20274;-76
2020/12/08 02:54:34;;;;;;;0.30;0.30;;;7.50;99.90;;;;;;10334160;28;20199;-77
2020/12/08 02:59:40;;;;;;;0.20;0.10;;;7.30;99.90;;;;;;10333986;28;20639;-77
2020/12/08 03:04:43;;;;;;;1.27;0.70;;;7.20;99.90;;;;;;10362312;28;20663;-77
2020/12/08 03:09:47;;;;;;;0.20;0.03;;;7.30;99.90;;;;;;10373551;28;20221;-75
2020/12/08 03:14:49;;;;;;;0.20;0.10;;;7.60;99.90;;;;;;10372285;28;20560;-76
2020/12/08 03:19:52;;;;;;;0.97;0.97;;;7.60;99.90;;;;;;10373246;28;20702;-75
2020/12/08 03:24:55;;;;;;;0.20;0.10;;;7.50;99.90;;;;;;10372213;28;20386;-76
2020/12/08 03:29:58;;;;;;;0.20;0.20;;;7.70;99.90;;;;;;10372740;28;20206;-76
2020/12/08 03:35:01;;;;;;;0.20;0.10;;;7.90;99.90;;;;;;10371700;28;20190;-75
2020/12/08 03:40:04;;;;;;;0.20;0.10;;;8.20;99.90;;;;;;10379894;28;20225;-77
2020/12/08 03:45:07;;;;;;;0.20;0.17;;;8.20;99.90;;;;;;10384610;28;20282;-77
2020/12/08 03:50:09;;;;;;;0.20;0.20;;;8.30;99.90;;;;;;10372684;28;20290;-77
2020/12/08 03:55:13;;;;;;;0.63;0.43;;;8.10;99.90;;;;;;10372343;28;20191;-77
2020/12/08 04:00:15;;;;;;;0.20;0.10;;;8.00;99.90;;;;;;10376104;23;20238;-72
2020/12/08 04:05:18;;;;;;;0.20;0.10;;;8.00;99.90;;;;;;10330870;28;20278;-71
2020/12/08 04:10:21;;;;;;;0.27;0.23;;;8.10;99.90;;;;;;10331067;28;20282;-72
2020/12/08 04:15:23;;;;;;;0.20;0.00;;;8.10;99.90;;;;;;10292471;28;20204;-73
2020/12/08 04:20:26;;;;;;;0.40;0.40;;;8.20;99.90;;;;;;10290401;28;20224;-73
2020/12/08 04:25:33;;;;;;;0.20;0.10;;;8.10;99.90;;;;;;10290446;28;20193;-73
2020/12/08 04:30:37;;;;;;;0.93;0.30;;;8.10;99.90;;;;;;10289455;28;20203;-73
2020/12/08 04:35:41;;;;;;;0.20;0.10;;;8.10;99.90;;;;;;10328454;28;20286;-73
2020/12/08 04:40:48;;;;;;;0.20;0.10;;;8.10;99.90;;;;;;10329522;28;20274;-73
2020/12/08 04:45:51;;;;;;;0.63;0.27;;;7.90;99.90;;;;;;10329493;28;20283;-74
2020/12/08 04:50:55;;;;;;;0.80;0.53;;;8.00;99.90;;;;;;10328132;28;20540;-73
2020/12/08 04:55:59;;;;;;;0.20;0.20;;;7.90;99.90;;;;;;10328853;28;20199;-73
2020/12/08 05:01:01;;;;;;;1.17;0.47;;;7.90;99.90;;;;;;10328082;23;20295;-75
2020/12/08 05:06:05;;;;;;;0.20;0.17;;;7.80;99.90;;;;;;10328158;28;20223;-78
2020/12/08 05:11:09;;;;;;;0.20;0.10;;;7.80;99.90;;;;;;10320123;28;20557;-76
2020/12/08 05:16:11;;;;;;;0.20;0.10;;;7.70;99.90;;;;;;10328293;28;20274;-77
2020/12/08 05:21:14;;;;;;;0.20;0.10;;;7.70;99.90;;;;;;10327098;28;20235;-77
2020/12/08 05:26:18;;;;;;;0.30;0.20;;;7.70;99.90;;;;;;10328574;28;20822;-74
2020/12/08 05:31:26;;;;;;;0.20;0.10;;;7.70;99.90;;;;;;10322729;28;20258;-78
2020/12/08 05:36:30;;;;;;;0.60;0.40;;;7.60;99.90;;;;;;10287181;28;20276;-74
2020/12/08 05:41:33;;;;;;;0.20;0.10;;;7.80;99.90;;;;;;10288291;28;20722;-76
2020/12/08 05:46:42;;;;;;;0.20;0.10;;;7.90;99.90;;;;;;10287222;28;20279;-76
2020/12/08 05:51:47;;;;;;;0.20;0.10;;;7.60;99.90;;;;;;10286852;28;20208;-76
2020/12/08 05:56:51;;;;;;;0.20;0.10;;;7.30;99.90;;;;;;10287220;28;20251;-78
2020/12/08 06:01:54;;;;;;;0.20;0.10;;;7.20;99.90;;;;;;10304362;28;20583;-76
2020/12/08 06:06:57;;;;;;;0.30;0.30;;;7.20;99.90;;;;;;10327589;28;20203;-76
2020/12/08 06:12:02;;;;;;;0.20;0.10;;;7.20;99.90;;;;;;10326745;28;20199;-74
2020/12/08 06:17:06;;;;;;;0.20;0.10;;;7.20;99.90;;;;;;10326831;28;20648;-75
2020/12/08 06:22:14;;;;;;;0.20;0.10;;;7.20;99.90;;;;;;10326315;28;20353;-75
2020/12/08 06:27:23;;;;;;;0.20;0.10;;;7.40;99.90;;;;;;10326848;28;20237;-76
2020/12/08 06:32:26;;;;;;;0.20;0.10;;;7.80;99.90;;;;;;10312863;28;20283;-76
2020/12/08 06:37:29;;;;;;;0.20;0.10;;;8.30;99.90;;;;;;10286452;28;20247;-76
2020/12/08 06:42:33;;;;;;;0.40;0.20;;;8.50;99.90;;;;;;10285199;28;20653;-76
2020/12/08 06:47:36;;;;;;;0.30;0.30;;;8.50;99.90;;;;;;10286150;28;20622;-77
2020/12/08 06:52:38;;;;;;;0.33;0.33;;;8.40;99.90;;;;;;10285400;28;20211;-76
2020/12/08 06:57:42;;;;;;;0.20;0.10;;;8.30;99.90;;;;;;10284846;28;20280;-77
2020/12/08 07:02:50;;;;;;;0.20;0.10;;;8.40;99.90;;;;;;10292196;28;20235;-75
2020/12/08 07:07:53;;;;;;;0.20;0.10;;;8.50;99.90;;;;;;10293176;28;20196;-75
2020/12/08 07:12:57;;;;;;;0.67;0.50;;;8.40;99.90;;;;;;10326997;28;20215;-75
2020/12/08 07:18:03;;;;;;;0.43;0.43;;;8.60;99.90;;;;;;10328044;28;20310;-76
2020/12/08 07:23:06;;;;;;;0.20;0.20;;;8.80;99.90;;;;;;10296792;28;20231;-78
2020/12/08 07:28:10;;;;;;;0.30;0.30;;;9.00;99.90;;;;;;10292038;28;20208;-74
2020/12/08 07:33:14;;;;;;;0.20;0.10;;;9.10;99.90;;;;;;10289560;28;20288;-72
2020/12/08 07:38:17;;;;;;;0.20;0.20;;;9.10;99.90;;;;;;10291550;28;20267;-77
2020/12/08 07:43:29;;;;;;;0.20;0.10;;;9.20;99.90;;;;;;10291576;28;20200;-78
2020/12/08 07:48:32;;;;;;;0.20;0.10;;;9.20;99.90;;;;;;10260199;28;20527;-77
2020/12/08 07:53:36;;;;;;;0.50;0.50;;;9.20;99.90;;;;;;10249670;29;20292;-76
2020/12/08 07:58:39;;;;;;;0.40;0.23;;;9.20;99.90;;;;;;10251250;28;20225;-76
2020/12/08 08:03:42;;;;;;;0.20;0.10;;;9.10;99.90;;;;;;10253753;28;20307;-77
2020/12/08 08:08:44;;;;;;;0.20;0.20;;;9.20;99.90;;;;;;10259703;28;20282;-77
2020/12/08 08:13:49;;;;;;;0.20;0.20;;;9.20;99.90;;;;;;10262276;28;20252;-79
2020/12/08 08:18:51;;;;;;;0.20;0.20;;;9.20;99.90;;;;;;10252193;29;20319;-76
2020/12/08 08:23:57;;;;;;;0.20;0.10;;;9.20;99.90;;;;;;10245200;28;20192;-79
2020/12/08 08:29:00;;;;;;;0.20;0.10;;;9.30;99.90;;;;;;10290273;28;20192;-79
2020/12/08 08:34:03;;;;;;;0.20;0.10;;;9.30;99.90;;;;;;10288413;28;20193;-78
2020/12/08 08:39:06;;;;;;;0.77;0.60;;;9.40;99.90;;;;;;10288258;28;20333;-81
2020/12/08 08:44:09;;;;;;;0.33;0.27;;;9.40;99.90;;;;;;10288698;28;20208;-81
2020/12/08 08:49:14;;;;;;;0.20;0.17;;;9.50;99.90;;;;;;10285826;28;20200;-74
2020/12/08 08:54:18;;;;;;;0.20;0.10;;;9.50;99.90;;;;;;10287348;28;20196;-77
2020/12/08 08:59:22;;;;;;;0.87;0.33;;;9.50;99.90;;;;;;10288257;28;20234;-74
2020/12/08 09:04:25;;;;;;;0.20;0.20;;;9.50;99.90;;;;;;10288737;28;20200;-76
2020/12/08 09:09:27;;;;;;;0.30;0.20;;;9.50;99.90;;;;;;10287326;28;20243;-75
2020/12/08 09:14:32;;;;;;;0.20;0.20;;;9.50;99.90;;;;;;10287968;28;20276;-75
2020/12/08 09:19:34;;;;;;;1.07;0.30;;;9.50;99.90;;;;;;10287509;28;20300;-75
2020/12/08 09:24:37;;;;;;;0.37;0.30;;;9.60;99.90;;;;;;10286032;28;20224;-74
2020/12/08 09:29:42;;;;;;;0.43;0.37;;;9.60;99.90;;;;;;10287479;28;20227;-74
2020/12/08 09:34:44;;;;;;;1.53;0.67;;;9.70;99.90;;;;;;10287208;28;20291;-73
2020/12/08 09:39:47;;;;;;;0.20;0.20;;;9.70;99.90;;;;;;10285870;28;20220;-75
2020/12/08 09:44:50;;;;;;;0.20;0.10;;;9.60;99.90;;;;;;10286602;28;20532;-76
2020/12/08 09:49:53;;;;;;;0.67;0.67;;;9.60;99.90;;;;;;10285201;28;20220;-76
2020/12/08 09:54:55;;;;;;;0.40;0.20;;;9.80;99.90;;;;;;10265070;28;20634;-75
2020/12/08 09:59:59;;;;;;;0.30;0.30;;;10.20;99.90;;;;;;10264769;28;20221;-74
2020/12/08 10:05:01;;;;;;;0.20;0.10;;;10.70;99.90;;;;;;10267164;28;20276;-73
2020/12/08 10:10:04;;;;;;;0.63;0.50;;;11.10;99.90;;;;;;10264188;28;20192;-74
2020/12/08 10:15:08;;;;;;;0.20;0.00;;;11.30;99.90;;;;;;10264595;28;20653;-74
2020/12/08 10:20:11;;;;;;;0.20;0.10;;;11.60;99.90;;;;;;10263628;28;20303;-74
2020/12/08 10:25:14;;;;;;;0.43;0.43;;;12.00;99.90;;;;;;10263123;28;20344;-71
2020/12/08 10:30:17;;;;;;;1.07;0.67;;;12.60;99.90;;;;;;10259271;28;20224;-72
2020/12/08 10:35:20;;;;;;;0.33;0.23;;;12.90;99.90;;;;;;10247957;28;20227;-73
2020/12/08 10:40:22;;;;;;;0.67;0.53;;;12.30;99.90;;;;;;10252093;29;20228;-73
2020/12/08 10:45:25;;;;;;;0.53;0.47;;;12.00;99.90;;;;;;10252419;29;20272;-74
2020/12/08 10:50:28;;;;;;;0.30;0.17;;;11.70;99.90;;;;;;10252394;29;20232;-74
2020/12/08 10:55:30;;;;;;;0.20;0.10;;;11.90;99.90;;;;;;10252056;29;20279;-75
2020/12/08 11:00:35;;;;;;;0.53;0.40;;;12.30;99.90;;;;;;10253112;28;20299;-75
2020/12/08 11:05:39;;;;;;;0.30;0.30;;;11.90;99.90;;;;;;10251437;29;20207;-73
2020/12/08 11:10:42;;;;;;;0.83;0.70;;;11.70;99.90;;;;;;10251583;29;20245;-73
2020/12/08 11:15:50;;;;;;;0.20;0.10;;;11.90;99.90;;;;;;10251413;29;20189;-72
2020/12/08 11:20:53;;;;;;;0.47;0.37;;;12.50;99.90;;;;;;10250632;29;20678;-72
2020/12/08 11:25:56;;;;;;;1.77;0.60;;;13.10;99.90;;;;;;10251345;29;20197;-74
2020/12/08 11:30:59;;;;;;;0.27;0.27;;;12.80;99.90;;;;;;10233412;29;20607;-72
2020/12/08 11:36:16;;;;;;;0.30;0.30;;;12.90;99.90;;;;;;10250426;29;20255;-73
2020/12/08 11:41:18;;;;;;;0.83;0.63;;;12.80;99.90;;;;;;10250188;29;20256;-74
2020/12/08 11:46:22;;;;;;;0.30;0.10;;;13.30;99.90;;;;;;10246233;28;20217;-74
2020/12/08 11:51:26;;;;;;;0.57;0.20;;;13.50;99.90;;;;;;10249763;29;20199;-75
2020/12/08 11:56:29;;;;;;;0.20;0.10;;;13.70;99.90;;;;;;10249546;29;20216;-72
2020/12/08 12:01:32;;;;;;;0.20;0.10;;;13.00;99.90;;;;;;10248850;29;20550;-74
2020/12/08 12:06:35;;;;;;;0.97;0.20;;;12.50;99.90;;;;;;10248936;29;20193;-75
2020/12/08 12:11:38;;;;;;;0.20;0.13;;;12.30;99.90;;;;;;10249329;29;20204;-75
2020/12/08 12:16:41;;;;;;;0.47;0.47;;;12.10;99.90;;;;;;10231759;29;20229;-75
2020/12/08 12:21:44;;;;;;;0.83;0.83;;;12.10;99.90;;;;;;10247898;29;20224;-74
2020/12/08 12:26:47;;;;;;;0.40;0.40;;;12.30;99.90;;;;;;10248733;29;20193;-73
2020/12/08 12:31:53;;;;;;;0.30;0.23;;;12.60;99.90;;;;;;10247278;29;20193;-74
2020/12/08 12:37:03;;;;;;;2.03;0.70;;;12.70;99.90;;;;;;10247668;29;20225;-71
2020/12/08 12:42:07;;;;;;;0.93;0.77;;;13.00;99.90;;;;;;10245545;29;20307;-74
2020/12/08 12:47:11;;;;;;;0.30;0.30;;;13.20;99.90;;;;;;10247894;29;20201;-85
2020/12/08 12:52:16;;;;;;;0.40;0.37;;;12.90;99.90;;;;;;10245124;29;20200;-75
2020/12/08 12:57:19;;;;;;;0.37;0.37;;;13.00;99.90;;;;;;10247076;28;20227;-72
2020/12/08 13:02:23;;;;;;;0.60;0.53;;;12.80;99.90;;;;;;10245070;29;20568;-75
2020/12/08 13:07:25;;;;;;;0.40;0.40;;;12.40;99.90;;;;;;10247334;29;20357;-77
2020/12/08 13:12:28;;;;;;;0.53;0.50;;;12.30;99.90;;;;;;10246887;29;20232;-72
2020/12/08 13:17:31;;;;;;;1.17;0.80;;;12.50;99.90;;;;;;10252815;28;20214;-75
2020/12/08 13:22:35;;;;;;;0.30;0.30;;;12.60;99.90;;;;;;10248821;28;20224;-74
2020/12/08 13:27:37;;;;;;;0.20;0.10;;;12.80;99.90;;;;;;10245486;29;20332;-75
2020/12/08 13:32:42;;;;;;;0.83;0.83;;;12.70;99.90;;;;;;10245792;29;20224;-74
2020/12/08 13:37:44;;;;;;;0.97;0.77;;;12.80;99.90;;;;;;10244866;29;20695;-73
2020/12/08 13:42:47;;;;;;;1.03;0.77;;;12.60;99.90;;;;;;10244085;29;20228;-74
2020/12/08 13:47:52;;;;;;;2.17;1.57;;;12.70;99.90;;;;;;10243439;29;20204;-77
2020/12/08 13:52:55;;;;;;;2.27;1.80;;;12.90;99.90;;;;;;10245363;29;20280;-73
2020/12/08 13:57:57;;;;;;;0.50;0.50;;;12.80;99.90;;;;;;10243522;29;20197;-74
2020/12/08 14:03:01;;;;;;;12.90;1.53;;;13.00;99.90;;;;;;10265112;28;20236;-74
2020/12/08 14:08:04;;;;;;;1.37;0.43;;;12.90;99.90;;;;;;10284424;28;20204;-73
2020/12/08 14:13:07;;;;;;;0.73;0.70;;;12.90;99.90;;;;;;10273389;28;20189;-72
2020/12/08 14:18:12;;;;;;;0.20;0.10;;;12.90;99.90;;;;;;10289760;28;20204;-74
2020/12/08 14:23:15;;;;;;;1.67;0.73;;;12.60;99.90;;;;;;10263681;28;20220;-73
2020/12/08 14:28:17;;;;;;;1.87;0.43;;;12.90;99.90;;;;;;10251153;29;20713;-74
2020/12/08 14:33:21;;;;;;;0.50;0.30;;;13.00;99.90;;;;;;10251198;29;20211;-75
2020/12/08 14:38:23;;;;;;;0.77;0.20;;;13.10;99.90;;;;;;10252631;29;20197;-73
2020/12/08 14:43:26;;;;;;;1.20;0.37;;;12.90;99.90;;;;;;10252789;29;20648;-72
2020/12/08 14:48:29;;;;;;;0.93;0.27;;;12.60;99.90;;;;;;10261565;28;20276;-75
2020/12/08 14:53:32;;;;;;;0.73;0.60;;;12.60;99.90;;;;;;10268199;28;20212;-73
2020/12/08 14:58:34;;;;;;;0.50;0.37;;;12.60;99.90;;;;;;10272146;28;20213;-74
2020/12/08 15:03:39;;;;;;;0.60;0.60;;;12.60;99.90;;;;;;10269024;28;20348;-74
2020/12/08 15:08:42;;;;;;;0.80;0.67;;;12.50;99.90;;;;;;10252708;28;20713;-73
2020/12/08 15:13:45;;;;;;;0.20;0.20;;;12.20;99.90;;;;;;10267529;28;20218;-74
2020/12/08 15:18:48;;;;;;;0.97;0.90;;;12.10;99.90;;;;;;10269459;28;20295;-74
2020/12/08 15:23:51;;;;;;;0.77;0.30;;;12.10;99.90;;;;;;10254741;28;20630;-72
2020/12/08 15:28:54;;;;;;;1.10;0.83;;;12.10;99.90;;;;;;10288681;28;20211;-74
2020/12/08 15:33:58;;;;;;;0.73;0.73;;;11.90;99.90;;;;;;10288902;28;20219;-73
2020/12/08 15:39:01;;;;;;;0.30;0.30;;;11.70;99.90;;;;;;10280235;28;20210;-74
2020/12/08 15:44:03;;;;;;;0.90;0.77;;;11.70;99.90;;;;;;10285980;28;20687;-74
2020/12/08 15:49:07;;;;;;;0.50;0.50;;;11.70;99.90;;;;;;10287826;28;20207;-74
2020/12/08 15:54:10;;;;;;;0.43;0.37;;;11.50;99.90;;;;;;10288834;28;20227;-75
2020/12/08 15:59:12;;;;;;;3.23;1.00;;;11.20;99.90;;;;;;10288947;28;20307;-74
2020/12/08 16:04:16;;;;;;;0.50;0.40;;;11.20;99.90;;;;;;10287588;28;20220;-75
2020/12/08 16:09:18;;;;;;;2.57;1.40;;;10.90;99.90;;;;;;10289178;28;20271;-73
2020/12/08 16:14:21;;;;;;;0.20;0.20;;;11.00;99.90;;;;;;10288557;28;20251;-75
2020/12/08 16:19:25;;;;;;;1.40;1.13;;;10.80;99.90;;;;;;10288482;28;20646;-76
2020/12/08 16:24:27;;;;;;;0.97;0.97;;;10.50;99.90;;;;;;10285971;28;20561;-74
2020/12/08 16:29:30;;;;;;;2.13;1.47;;;10.40;99.90;;;;;;10287965;28;20619;-74
2020/12/08 16:34:33;;;;;;;6.17;0.77;;;9.90;99.90;;;;;;10286914;28;20191;-74
2020/12/08 16:39:36;;;;;;;1.17;1.07;;;9.60;99.90;;;;;;10286818;28;20255;-74
2020/12/08 16:44:38;;;;;;;1.57;1.40;;;9.50;99.90;;;;;;10288067;28;20208;-79
2020/12/08 16:49:43;;;;;;;2.43;2.00;;;9.50;99.90;;;;;;10285388;28;20202;-78
2020/12/08 16:54:46;;;;;;;1.33;1.03;;;9.40;99.90;;;;;;10246644;29;20655;-79
2020/12/08 16:59:50;;;;;;;6.73;2.33;;;9.40;99.90;;;;;;10248195;29;20224;-77
2020/12/08 17:04:54;;;;;;;1.07;0.97;;;9.10;99.90;;;;;;10248393;29;20197;-74
2020/12/08 17:09:56;;;;;;;5.10;1.97;;;8.90;99.90;;;;;;10230251;29;20193;-77
2020/12/08 17:14:59;;;;;;;1.27;1.00;;;8.50;99.90;;;;;;10248231;29;20225;-78
2020/12/08 17:20:03;;;;;;;0.30;0.30;;;8.40;99.90;;;;;;10246905;29;20481;-76
2020/12/08 17:25:05;;;;;;;0.63;0.50;;;8.50;99.90;;;;;;10246747;29;20275;-73
2020/12/08 17:30:09;;;;;;;1.27;1.17;;;8.40;99.90;;;;;;10264325;28;20207;-77
2020/12/08 17:35:14;;;;;;;0.47;0.47;;;8.30;99.90;;;;;;10246868;28;20255;-78
2020/12/08 17:40:17;;;;;;;1.60;1.47;;;8.40;99.90;;;;;;10246850;28;20216;-80
2020/12/08 17:45:19;;;;;;;2.20;1.17;;;8.10;99.90;;;;;;10246807;28;20193;-78
2020/12/08 17:50:23;;;;;;;2.40;2.27;;;8.00;99.90;;;;;;10246867;28;20205;-78
2020/12/08 17:55:25;;;;;;;4.70;3.17;;;7.90;99.90;;;;;;10245666;28;20734;-76
2020/12/08 18:00:28;;;;;;;2.20;1.40;;;7.90;99.90;;;;;;10243480;28;20236;-75
2020/12/08 18:05:32;;;;;;;1.60;1.50;;;7.60;99.90;;;;;;10244553;28;20276;-76
2020/12/08 18:10:35;;;;;;;1.40;1.33;;;7.50;99.90;;;;;;10244423;28;20530;-77
2020/12/08 18:15:37;;;;;;;4.97;2.27;;;7.50;99.90;;;;;;10244066;28;20220;-77
2020/12/08 18:20:42;;;;;;;1.07;1.00;;;7.30;99.90;;;;;;10244257;28;20225;-77
2020/12/08 18:25:45;;;;;;;1.67;1.57;;;7.50;99.90;;;;;;10242853;28;20193;-77
2020/12/08 18:30:47;;;;;;;1.57;0.97;;;8.00;99.90;;;;;;10243339;28;20207;-76
2020/12/08 18:35:50;;;;;;;0.27;0.27;;;9.10;99.90;;;;;;10241698;28;20201;-77
2020/12/08 18:40:53;;;;;;;0.47;0.47;;;9.60;99.90;;;;;;10242142;28;20319;-75
2020/12/08 18:45:55;;;;;;;2.20;1.07;;;10.10;99.90;;;;;;10249770;28;20713;-76
2020/12/08 18:50:59;;;;;;;8.43;0.40;;;10.30;99.90;;;;;;10296516;28;20197;-75
2020/12/08 18:56:02;;;;;;;0.40;0.40;;;10.30;99.90;;;;;;10285718;28;20272;-74
2020/12/08 19:01:04;;;;;;;0.40;0.27;;;10.30;99.90;;;;;;10290912;28;20250;-74
2020/12/08 19:06:08;;;;;;;0.63;0.63;;;10.70;99.90;;;;;;10290579;28;20678;-74
2020/12/08 19:11:10;;;;;;;0.40;0.40;;;10.50;99.90;;;;;;10289731;28;20214;-75
2020/12/08 19:16:13;;;;;;;0.70;0.40;;;10.60;99.90;;;;;;10304321;28;20319;-75
2020/12/08 19:21:18;;;;;;;0.30;0.30;;;10.60;99.90;;;;;;10290390;28;20306;-77
2020/12/08 19:26:20;;;;;;;2.30;0.50;;;10.50;99.90;;;;;;10289243;28;20549;-75
2020/12/08 19:31:24;;;;;;;0.60;0.60;;;10.40;99.90;;;;;;10286915;28;20200;-75
2020/12/08 19:36:28;;;;;;;0.90;0.63;;;10.10;99.90;;;;;;10289362;28;20200;-78
2020/12/08 19:41:30;;;;;;;3.40;0.87;;;9.80;99.90;;;;;;10288061;28;20224;-75
2020/12/08 19:46:33;;;;;;;1.87;0.50;;;9.70;99.90;;;;;;10288368;28;20222;-77
2020/12/08 19:51:38;;;;;;;3.50;1.17;;;9.60;99.90;;;;;;10288713;28;20196;-77
2020/12/08 19:56:41;;;;;;;0.67;0.40;;;9.40;99.90;;;;;;10288358;28;20204;-78
2020/12/08 20:01:44;;;;;;;0.20;0.10;;;9.40;99.90;;;;;;10287185;28;20228;-76
2020/12/08 20:06:48;;;;;;;0.30;0.30;;;9.30;99.90;;;;;;10286993;28;20200;-75
2020/12/08 20:11:50;;;;;;;0.20;0.10;;;9.30;99.90;;;;;;10286004;28;20723;-77
2020/12/08 20:16:53;;;;;;;1.70;0.70;;;9.40;99.90;;;;;;10287639;28;20279;-78
2020/12/08 20:21:56;;;;;;;0.20;0.10;;;9.40;99.90;;;;;;10287156;28;20230;-74
2020/12/08 20:26:59;;;;;;;3.47;0.57;;;9.20;99.90;;;;;;10287686;28;20223;-77
2020/12/08 20:32:01;;;;;;;0.30;0.30;;;9.20;99.90;;;;;;10287336;28;20207;-80
2020/12/08 20:37:08;;;;;;;2.40;0.37;;;9.10;99.90;;;;;;10296762;28;20193;-74
2020/12/08 20:42:11;;;;;;;0.60;0.40;;;9.30;99.90;;;;;;10283916;28;20252;-74
2020/12/08 20:47:14;;;;;;;0.20;0.20;;;9.40;99.90;;;;;;10286898;28;20211;-75
2020/12/08 20:52:17;;;;;;;0.30;0.30;;;9.40;99.90;;;;;;10288992;28;20323;-78
2020/12/08 20:57:20;;;;;;;0.60;0.43;;;9.30;99.90;;;;;;10286200;28;20306;-77
2020/12/08 21:02:23;;;;;;;0.30;0.20;;;9.20;99.90;;;;;;10285803;28;20232;-79
2020/12/08 21:07:27;;;;;;;0.63;0.30;;;9.20;99.90;;;;;;10268586;28;20196;-80
2020/12/08 21:12:29;;;;;;;0.73;0.70;;;9.40;99.90;;;;;;10284803;28;20286;-79
2020/12/08 21:17:32;;;;;;;1.80;0.87;;;9.50;99.90;;;;;;10285733;28;20422;-79
2020/12/08 21:22:37;;;;;;;2.00;0.50;;;9.60;99.90;;;;;;10284395;28;20254;-81
2020/12/08 21:27:40;;;;;;;0.20;0.10;;;9.60;99.90;;;;;;10245830;29;20197;-80
2020/12/08 21:32:44;;;;;;;0.87;0.30;;;9.60;99.90;;;;;;10260278;28;20284;-78
2020/12/08 21:37:49;;;;;;;0.20;0.10;;;9.50;99.90;;;;;;10245227;29;20710;-82
2020/12/08 21:42:52;;;;;;;0.20;0.10;;;9.50;99.90;;;;;;10245472;29;20255;-81
2020/12/08 21:47:55;;;;;;;0.93;0.80;;;9.40;99.90;;;;;;10245238;28;20197;-81
2020/12/08 21:52:58;;;;;;;0.50;0.50;;;9.30;99.90;;;;;;10278672;28;20202;-81
2020/12/08 21:58:00;;;;;;;0.73;0.20;;;9.10;99.90;;;;;;10285415;28;20563;-78
2020/12/08 22:03:03;;;;;;;0.20;0.10;;;8.90;99.90;;;;;;10284668;28;20263;-78
2020/12/08 22:08:07;;;;;;;0.30;0.30;;;8.80;99.90;;;;;;10284146;28;20199;-78
2020/12/08 22:13:09;;;;;;;0.27;0.20;;;8.70;99.90;;;;;;10283703;28;20283;-78
2020/12/08 22:18:14;;;;;;;0.53;0.30;;;8.70;99.90;;;;;;10284203;28;20220;-79
2020/12/08 22:23:18;;;;;;;0.80;0.70;;;8.60;99.90;;;;;;10281681;28;20819;-79
2020/12/08 22:28:20;;;;;;;0.20;0.20;;;8.50;99.90;;;;;;10269094;28;20198;-78
2020/12/08 22:33:23;;;;;;;0.20;0.10;;;8.80;99.90;;;;;;10290601;28;20200;-77
2020/12/08 22:38:26;;;;;;;0.30;0.17;;;9.70;99.90;;;;;;10281626;28;20195;-78
2020/12/08 22:43:29;;;;;;;0.33;0.33;;;9.90;99.90;;;;;;10288203;28;20228;-79
2020/12/08 22:48:31;;;;;;;0.20;0.10;;;9.80;99.90;;;;;;10294002;28;20770;-79
2020/12/08 22:53:36;;;;;;;0.20;0.20;;;9.90;99.90;;;;;;10293858;28;20232;-79
2020/12/08 22:58:38;;;;;;;0.40;0.40;;;9.70;99.90;;;;;;10292384;28;20227;-79
2020/12/08 23:03:41;;;;;;;0.20;0.20;;;9.70;99.90;;;;;;10293069;28;20239;-78
2020/12/08 23:08:45;;;;;;;0.20;0.10;;;9.80;99.90;;;;;;10293192;28;20200;-78
2020/12/08 23:13:47;;;;;;;0.93;0.33;;;9.70;99.90;;;;;;10291932;28;20307;-79
2020/12/08 23:18:50;;;;;;;0.20;0.10;;;9.60;99.90;;;;;;10292425;28;20196;-77
2020/12/08 23:23:53;;;;;;;0.20;0.10;;;9.80;99.90;;;;;;10293145;28;20319;-76
2020/12/08 23:28:56;;;;;;;0.20;0.10;;;9.90;99.90;;;;;;10292328;28;20344;-81
2020/12/08 23:33:58;;;;;;;0.40;0.30;;;10.30;99.90;;;;;;10292759;28;20287;-76
2020/12/08 23:39:03;;;;;;;0.20;0.10;;;10.30;99.90;;;;;;10291884;28;20251;-75
2020/12/08 23:44:05;;;;;;;0.30;0.10;;;10.40;99.90;;;;;;10290627;28;20232;-76
2020/12/08 23:49:08;;;;;;;0.30;0.30;;;10.40;99.90;;;;;;10291598;28;20208;-77
2020/12/08 23:54:11;;;;;;;0.40;0.40;;;10.20;99.90;;;;;;10290297;28;20196;-77
2020/12/08 23:59:14;;;;;;;0.20;0.10;;;10.10;99.90;;;;;;10289570;28;20203;-76
